sensor_id;sensor_type;location;lat;lon;timestamp;pressure;altitude;pressure_sealevel;temperature;humidity
76074;BME280;64776;42.636;24.358;2024-03-17T00:01:12;90386.72;;;3.96;95.48
76074;BME280;64776;42.636;24.358;2024-03-17T00:04:13;90386.44;;;3.69;96.03
76074;BME280;64776;42.636;24.358;2024-03-17T00:07:14;90385.91;;;3.74;95.01
76074;BME280;64776;42.636;24.358;2024-03-17T00:10:16;90387.59;;;3.80;95.13
76074;BME280;64776;42.636;24.358;2024-03-17T00:13:17;90378.84;;;3.46;95.06
76074;BME280;64776;42.636;24.358;2024-03-17T00:16:18;90378.31;;;3.51;95.54
76074;BME280;64776;42.636;24.358;2024-03-17T00:19:19;90374.72;;;3.57;94.69
76074;BME280;64776;42.636;24.358;2024-03-17T00:22:20;90375.25;;;3.65;94.54
76074;BME280;64776;42.636;24.358;2024-03-17T00:25:22;90371.03;;;3.67;93.96
76074;BME280;64776;42.636;24.358;2024-03-17T00:28:23;90361.72;;;3.63;94.76
76074;BME280;64776;42.636;24.358;2024-03-17T00:31:23;90369.56;;;3.54;94.81
76074;BME280;64776;42.636;24.358;2024-03-17T00:34:24;90368.59;;;3.35;94.81
76074;BME280;64776;42.636;24.358;2024-03-17T00:37:25;90363.44;;;3.32;93.98
76074;BME280;64776;42.636;24.358;2024-03-17T00:40:28;90361.50;;;3.19;93.93
76074;BME280;64776;42.636;24.358;2024-03-17T00:43:28;90359.59;;;3.20;94.28
76074;BME280;64776;42.636;24.358;2024-03-17T00:46:29;90351.63;;;3.23;93.53
76074;BME280;64776;42.636;24.358;2024-03-17T00:49:30;90361.25;;;3.01;93.79
76074;BME280;64776;42.636;24.358;2024-03-17T00:52:31;90360.22;;;2.70;95.00
76074;BME280;64776;42.636;24.358;2024-03-17T00:55:33;90357.13;;;2.88;94.54
76074;BME280;64776;42.636;24.358;2024-03-17T00:58:34;90362.44;;;3.00;93.79
76074;BME280;64776;42.636;24.358;2024-03-17T01:01:34;90353.47;;;2.98;94.36
76074;BME280;64776;42.636;24.358;2024-03-17T01:04:35;90357.25;;;2.97;94.20
76074;BME280;64776;42.636;24.358;2024-03-17T01:07:36;90349.66;;;2.86;94.69
76074;BME280;64776;42.636;24.358;2024-03-17T01:10:39;90354.94;;;2.86;94.84
76074;BME280;64776;42.636;24.358;2024-03-17T01:13:39;90351.97;;;2.84;95.69
76074;BME280;64776;42.636;24.358;2024-03-17T01:16:40;90343.06;;;2.78;96.08
76074;BME280;64776;42.636;24.358;2024-03-17T01:19:41;90356.34;;;2.75;96.64
76074;BME280;64776;42.636;24.358;2024-03-17T01:22:42;90354.03;;;2.77;96.89
76074;BME280;64776;42.636;24.358;2024-03-17T01:25:44;90358.47;;;2.80;96.86
76074;BME280;64776;42.636;24.358;2024-03-17T01:28:44;90348.91;;;2.86;96.76
76074;BME280;64776;42.636;24.358;2024-03-17T01:31:45;90351.13;;;2.87;96.37
76074;BME280;64776;42.636;24.358;2024-03-17T01:34:46;90345.97;;;2.84;96.39
76074;BME280;64776;42.636;24.358;2024-03-17T01:37:47;90350.47;;;2.83;96.49
76074;BME280;64776;42.636;24.358;2024-03-17T01:40:49;90348.69;;;2.80;96.61
76074;BME280;64776;42.636;24.358;2024-03-17T01:43:50;90353.28;;;2.76;96.53
76074;BME280;64776;42.636;24.358;2024-03-17T01:46:51;90351.19;;;2.71;96.81
76074;BME280;64776;42.636;24.358;2024-03-17T01:49:52;90353.78;;;2.59;97.35
76074;BME280;64776;42.636;24.358;2024-03-17T01:52:53;90350.88;;;2.69;97.25
76074;BME280;64776;42.636;24.358;2024-03-17T01:55:59;90349.31;;;2.72;96.79
76074;BME280;64776;42.636;24.358;2024-03-17T01:59:01;90355.34;;;2.56;96.94
76074;BME280;64776;42.636;24.358;2024-03-17T02:02:02;90355.53;;;2.49;96.63
76074;BME280;64776;42.636;24.358;2024-03-17T02:05:04;90349.97;;;2.47;96.75
76074;BME280;64776;42.636;24.358;2024-03-17T02:08:05;90352.75;;;2.40;96.89
76074;BME280;64776;42.636;24.358;2024-03-17T02:11:25;90349.47;;;2.36;97.07
76074;BME280;64776;42.636;24.358;2024-03-17T02:14:27;90349.47;;;2.36;97.12
76074;BME280;64776;42.636;24.358;2024-03-17T02:17:27;90352.13;;;2.36;96.98
76074;BME280;64776;42.636;24.358;2024-03-17T02:20:28;90355.41;;;2.40;96.52
76074;BME280;64776;42.636;24.358;2024-03-17T02:23:33;90352.34;;;2.41;96.47
76074;BME280;64776;42.636;24.358;2024-03-17T02:26:34;90353.94;;;2.39;96.00
76074;BME280;64776;42.636;24.358;2024-03-17T02:29:35;90346.19;;;2.32;96.36
76074;BME280;64776;42.636;24.358;2024-03-17T02:32:36;90345.13;;;2.29;96.80
76074;BME280;64776;42.636;24.358;2024-03-17T02:35:36;90346.31;;;2.28;97.57
76074;BME280;64776;42.636;24.358;2024-03-17T02:38:39;90341.84;;;2.25;97.52
76074;BME280;64776;42.636;24.358;2024-03-17T02:41:42;90343.41;;;2.23;97.80
76074;BME280;64776;42.636;24.358;2024-03-17T02:44:43;90342.28;;;2.24;98.01
76074;BME280;64776;42.636;24.358;2024-03-17T02:47:43;90339.00;;;2.20;98.08
76074;BME280;64776;42.636;24.358;2024-03-17T02:50:44;90335.94;;;2.21;97.94
76074;BME280;64776;42.636;24.358;2024-03-17T02:53:47;90332.56;;;2.21;98.35
76074;BME280;64776;42.636;24.358;2024-03-17T02:56:48;90340.28;;;2.28;98.64
76074;BME280;64776;42.636;24.358;2024-03-17T02:59:49;90334.81;;;2.35;98.11
76074;BME280;64776;42.636;24.358;2024-03-17T03:02:50;90338.84;;;2.39;97.87
76074;BME280;64776;42.636;24.358;2024-03-17T03:05:51;90328.78;;;2.22;98.32
76074;BME280;64776;42.636;24.358;2024-03-17T03:08:53;90334.47;;;2.04;98.94
76074;BME280;64776;42.636;24.358;2024-03-17T03:11:53;90336.56;;;1.81;100.00
76074;BME280;64776;42.636;24.358;2024-03-17T03:14:54;90324.22;;;2.10;99.33
76074;BME280;64776;42.636;24.358;2024-03-17T03:17:55;90325.19;;;2.16;100.00
76074;BME280;64776;42.636;24.358;2024-03-17T03:20:56;90330.25;;;2.23;99.78
76074;BME280;64776;42.636;24.358;2024-03-17T03:23:58;90330.50;;;2.28;99.46
76074;BME280;64776;42.636;24.358;2024-03-17T03:26:59;90326.47;;;2.24;98.98
76074;BME280;64776;42.636;24.358;2024-03-17T03:29:59;90324.75;;;2.17;98.97
76074;BME280;64776;42.636;24.358;2024-03-17T03:33:00;90323.63;;;2.02;99.17
76074;BME280;64776;42.636;24.358;2024-03-17T03:36:07;90333.19;;;1.96;98.92
76074;BME280;64776;42.636;24.358;2024-03-17T03:39:09;90332.19;;;1.90;99.11
76074;BME280;64776;42.636;24.358;2024-03-17T03:42:10;90330.97;;;1.95;99.06
76074;BME280;64776;42.636;24.358;2024-03-17T03:45:11;90337.16;;;1.72;100.00
76074;BME280;64776;42.636;24.358;2024-03-17T03:48:12;90333.09;;;1.84;100.00
76074;BME280;64776;42.636;24.358;2024-03-17T03:51:12;90334.50;;;1.88;99.85
76074;BME280;64776;42.636;24.358;2024-03-17T03:54:15;90327.38;;;1.89;99.83
76074;BME280;64776;42.636;24.358;2024-03-17T03:57:15;90326.88;;;1.94;99.84
76074;BME280;64776;42.636;24.358;2024-03-17T04:00:16;90331.84;;;2.04;98.90
76074;BME280;64776;42.636;24.358;2024-03-17T04:03:17;90335.31;;;2.01;98.71
76074;BME280;64776;42.636;24.358;2024-03-17T04:06:18;90343.63;;;2.00;98.68
76074;BME280;64776;42.636;24.358;2024-03-17T04:09:22;90342.78;;;2.03;98.65
76074;BME280;64776;42.636;24.358;2024-03-17T04:12:24;90343.00;;;1.96;98.61
76074;BME280;64776;42.636;24.358;2024-03-17T04:15:25;90351.53;;;1.84;98.94
76074;BME280;64776;42.636;24.358;2024-03-17T04:18:26;90352.19;;;1.88;99.49
76074;BME280;64776;42.636;24.358;2024-03-17T04:21:27;90353.66;;;1.89;99.88
76074;BME280;64776;42.636;24.358;2024-03-17T04:24:29;90353.41;;;1.99;99.60
76074;BME280;64776;42.636;24.358;2024-03-17T04:27:30;90356.94;;;2.09;99.42
76074;BME280;64776;42.636;24.358;2024-03-17T04:30:31;90357.59;;;2.13;99.19
76074;BME280;64776;42.636;24.358;2024-03-17T04:33:32;90353.88;;;2.10;98.85
76074;BME280;64776;42.636;24.358;2024-03-17T04:36:33;90369.94;;;2.00;98.93
76074;BME280;64776;42.636;24.358;2024-03-17T04:39:36;90367.97;;;1.88;98.97
76074;BME280;64776;42.636;24.358;2024-03-17T04:42:37;90371.66;;;1.90;99.30
76074;BME280;64776;42.636;24.358;2024-03-17T04:45:37;90373.22;;;1.88;99.82
76074;BME280;64776;42.636;24.358;2024-03-17T04:48:38;90370.09;;;1.93;99.93
76074;BME280;64776;42.636;24.358;2024-03-17T04:51:39;90372.25;;;1.98;99.74
76074;BME280;64776;42.636;24.358;2024-03-17T04:54:41;90379.63;;;2.03;99.56
76074;BME280;64776;42.636;24.358;2024-03-17T04:57:42;90380.63;;;2.09;99.30
76074;BME280;64776;42.636;24.358;2024-03-17T05:00:43;90377.97;;;2.09;99.24
76074;BME280;64776;42.636;24.358;2024-03-17T05:03:44;90380.13;;;2.14;99.10
76074;BME280;64776;42.636;24.358;2024-03-17T05:06:45;90387.84;;;2.21;98.57
76074;BME280;64776;42.636;24.358;2024-03-17T05:09:47;90383.09;;;2.16;99.30
76074;BME280;64776;42.636;24.358;2024-03-17T05:12:48;90384.38;;;2.24;99.12
76074;BME280;64776;42.636;24.358;2024-03-17T05:15:49;90381.16;;;2.32;99.14
76074;BME280;64776;42.636;24.358;2024-03-17T05:18:50;90379.41;;;2.42;99.20
76074;BME280;64776;42.636;24.358;2024-03-17T05:21:50;90384.59;;;2.45;98.81
76074;BME280;64776;42.636;24.358;2024-03-17T05:24:52;90384.84;;;2.51;98.67
76074;BME280;64776;42.636;24.358;2024-03-17T05:27:53;90390.09;;;2.51;98.77
76074;BME280;64776;42.636;24.358;2024-03-17T05:30:54;90396.38;;;2.41;99.19
76074;BME280;64776;42.636;24.358;2024-03-17T05:33:55;90396.19;;;2.48;98.88
76074;BME280;64776;42.636;24.358;2024-03-17T05:36:56;90396.69;;;2.43;99.52
76074;BME280;64776;42.636;24.358;2024-03-17T05:39:58;90387.69;;;2.57;99.46
76074;BME280;64776;42.636;24.358;2024-03-17T05:42:59;90390.69;;;2.71;98.62
76074;BME280;64776;42.636;24.358;2024-03-17T05:46:00;90385.06;;;2.85;98.45
76074;BME280;64776;42.636;24.358;2024-03-17T05:49:01;90385.78;;;2.86;98.47
76074;BME280;64776;42.636;24.358;2024-03-17T05:52:02;90388.53;;;2.82;99.00
76074;BME280;64776;42.636;24.358;2024-03-17T05:55:05;90390.56;;;2.62;99.66
76074;BME280;64776;42.636;24.358;2024-03-17T05:58:06;90388.94;;;2.81;99.52
76074;BME280;64776;42.636;24.358;2024-03-17T06:01:06;90391.44;;;3.00;99.50
76074;BME280;64776;42.636;24.358;2024-03-17T06:04:07;90389.66;;;3.10;98.81
76074;BME280;64776;42.636;24.358;2024-03-17T06:07:08;90395.63;;;2.98;98.57
76074;BME280;64776;42.636;24.358;2024-03-17T06:10:10;90407.03;;;3.07;99.11
76074;BME280;64776;42.636;24.358;2024-03-17T06:13:11;90396.44;;;3.23;98.96
76074;BME280;64776;42.636;24.358;2024-03-17T06:16:12;90408.31;;;3.15;98.83
76074;BME280;64776;42.636;24.358;2024-03-17T06:19:12;90405.41;;;3.39;99.23
76074;BME280;64776;42.636;24.358;2024-03-17T06:22:13;90412.91;;;3.53;98.41
76074;BME280;64776;42.636;24.358;2024-03-17T06:25:16;90402.78;;;3.64;97.16
76074;BME280;64776;42.636;24.358;2024-03-17T06:28:17;90415.13;;;3.79;97.05
76074;BME280;64776;42.636;24.358;2024-03-17T06:31:18;90416.81;;;3.98;96.37
76074;BME280;64776;42.636;24.358;2024-03-17T06:34:18;90412.06;;;4.06;95.82
76074;BME280;64776;42.636;24.358;2024-03-17T06:37:19;90418.69;;;4.23;96.27
76074;BME280;64776;42.636;24.358;2024-03-17T06:40:21;90415.09;;;4.42;95.51
76074;BME280;64776;42.636;24.358;2024-03-17T06:43:22;90420.06;;;4.40;93.94
76074;BME280;64776;42.636;24.358;2024-03-17T06:46:23;90417.06;;;4.51;94.55
76074;BME280;64776;42.636;24.358;2024-03-17T06:49:24;90411.97;;;4.56;94.70
76074;BME280;64776;42.636;24.358;2024-03-17T06:52:24;90415.91;;;4.86;94.40
76074;BME280;64776;42.636;24.358;2024-03-17T06:55:26;90418.50;;;5.20;94.20
76074;BME280;64776;42.636;24.358;2024-03-17T06:58:28;90418.38;;;5.24;92.72
76074;BME280;64776;42.636;24.358;2024-03-17T07:01:28;90419.53;;;5.44;93.05
76074;BME280;64776;42.636;24.358;2024-03-17T07:04:29;90415.69;;;5.67;92.21
76074;BME280;64776;42.636;24.358;2024-03-17T07:07:30;90418.13;;;5.83;89.68
76074;BME280;64776;42.636;24.358;2024-03-17T07:10:32;90423.22;;;5.99;89.21
76074;BME280;64776;42.636;24.358;2024-03-17T07:13:34;90419.94;;;6.35;88.71
76074;BME280;64776;42.636;24.358;2024-03-17T07:16:35;90414.13;;;6.58;86.09
76074;BME280;64776;42.636;24.358;2024-03-17T07:19:36;90428.88;;;6.77;83.35
76074;BME280;64776;42.636;24.358;2024-03-17T07:22:36;90421.09;;;6.92;82.67
76074;BME280;64776;42.636;24.358;2024-03-17T07:25:39;90417.97;;;7.11;81.69
76074;BME280;64776;42.636;24.358;2024-03-17T07:28:39;90415.19;;;7.06;80.37
76074;BME280;64776;42.636;24.358;2024-03-17T07:31:40;90408.72;;;6.98;79.98
76074;BME280;64776;42.636;24.358;2024-03-17T07:34:41;90417.25;;;6.84;79.28
76074;BME280;64776;42.636;24.358;2024-03-17T07:37:42;90416.34;;;6.87;79.70
76074;BME280;64776;42.636;24.358;2024-03-17T07:40:45;90416.97;;;6.82;77.66
76074;BME280;64776;42.636;24.358;2024-03-17T07:43:46;90411.97;;;7.11;77.23
76074;BME280;64776;42.636;24.358;2024-03-17T07:46:47;90405.16;;;7.37;75.74
76074;BME280;64776;42.636;24.358;2024-03-17T07:49:48;90407.91;;;7.61;74.34
76074;BME280;64776;42.636;24.358;2024-03-17T07:52:48;90404.16;;;7.85;72.57
76074;BME280;64776;42.636;24.358;2024-03-17T07:55:58;90395.84;;;8.01;71.29
76074;BME280;64776;42.636;24.358;2024-03-17T07:58:59;90400.66;;;8.12;71.33
76074;BME280;64776;42.636;24.358;2024-03-17T08:02:00;90404.72;;;7.89;70.69
76074;BME280;64776;42.636;24.358;2024-03-17T08:05:00;90403.84;;;7.92;71.93
76074;BME280;64776;42.636;24.358;2024-03-17T08:08:01;90400.91;;;7.90;72.25
76074;BME280;64776;42.636;24.358;2024-03-17T08:11:03;90400.25;;;8.04;70.60
76074;BME280;64776;42.636;24.358;2024-03-17T08:14:04;90401.16;;;8.01;70.96
76074;BME280;64776;42.636;24.358;2024-03-17T08:17:05;90402.69;;;7.84;69.66
76074;BME280;64776;42.636;24.358;2024-03-17T08:20:06;90405.19;;;7.88;69.71
76074;BME280;64776;42.636;24.358;2024-03-17T08:23:08;90402.41;;;7.73;69.15
76074;BME280;64776;42.636;24.358;2024-03-17T08:26:10;90403.72;;;7.78;70.01
76074;BME280;64776;42.636;24.358;2024-03-17T08:29:11;90405.00;;;8.00;70.07
76074;BME280;64776;42.636;24.358;2024-03-17T08:32:12;90399.50;;;8.04;69.68
76074;BME280;64776;42.636;24.358;2024-03-17T08:35:13;90401.25;;;8.16;69.63
76074;BME280;64776;42.636;24.358;2024-03-17T08:38:14;90404.28;;;8.33;67.68
76074;BME280;64776;42.636;24.358;2024-03-17T08:41:16;90399.47;;;8.22;66.81
76074;BME280;64776;42.636;24.358;2024-03-17T08:44:17;90399.88;;;8.20;65.07
76074;BME280;64776;42.636;24.358;2024-03-17T08:47:18;90400.25;;;8.04;65.96
76074;BME280;64776;42.636;24.358;2024-03-17T08:50:18;90398.69;;;8.31;66.35
76074;BME280;64776;42.636;24.358;2024-03-17T08:53:19;90403.03;;;8.10;66.59
76074;BME280;64776;42.636;24.358;2024-03-17T08:56:21;90402.25;;;8.28;68.61
76074;BME280;64776;42.636;24.358;2024-03-17T08:59:22;90392.34;;;8.61;62.89
76074;BME280;64776;42.636;24.358;2024-03-17T09:02:23;90398.16;;;8.74;63.14
76074;BME280;64776;42.636;24.358;2024-03-17T09:05:24;90383.00;;;9.27;60.45
76074;BME280;64776;42.636;24.358;2024-03-17T09:08:25;90389.81;;;9.57;59.64
76074;BME280;64776;42.636;24.358;2024-03-17T09:11:27;90383.47;;;9.84;61.36
76074;BME280;64776;42.636;24.358;2024-03-17T09:14:28;90382.75;;;10.13;59.76
76074;BME280;64776;42.636;24.358;2024-03-17T09:17:29;90374.94;;;10.24;57.21
76074;BME280;64776;42.636;24.358;2024-03-17T09:20:29;90381.59;;;10.69;59.06
76074;BME280;64776;42.636;24.358;2024-03-17T09:23:31;90375.38;;;10.57;58.37
76074;BME280;64776;42.636;24.358;2024-03-17T09:26:33;90379.03;;;10.25;58.52
76074;BME280;64776;42.636;24.358;2024-03-17T09:29:34;90368.94;;;10.49;57.01
76074;BME280;64776;42.636;24.358;2024-03-17T09:32:35;90377.66;;;10.64;57.70
76074;BME280;64776;42.636;24.358;2024-03-17T09:35:36;90370.28;;;10.94;55.67
76074;BME280;64776;42.636;24.358;2024-03-17T09:38:37;90368.72;;;11.07;54.62
76074;BME280;64776;42.636;24.358;2024-03-17T09:41:39;90368.78;;;11.33;55.54
76074;BME280;64776;42.636;24.358;2024-03-17T09:44:40;90365.66;;;11.14;53.17
76074;BME280;64776;42.636;24.358;2024-03-17T09:47:41;90368.78;;;11.33;52.91
76074;BME280;64776;42.636;24.358;2024-03-17T09:50:42;90361.97;;;11.58;53.92
76074;BME280;64776;42.636;24.358;2024-03-17T09:53:44;90370.22;;;11.08;53.76
76074;BME280;64776;42.636;24.358;2024-03-17T09:56:46;90365.38;;;11.32;52.84
76074;BME280;64776;42.636;24.358;2024-03-17T09:59:50;90358.53;;;11.52;52.18
76074;BME280;64776;42.636;24.358;2024-03-17T10:02:51;90357.34;;;11.58;55.47
76074;BME280;64776;42.636;24.358;2024-03-17T10:05:59;90361.03;;;11.81;53.70
76074;BME280;64776;42.636;24.358;2024-03-17T10:09:00;90362.00;;;11.83;53.79
76074;BME280;64776;42.636;24.358;2024-03-17T10:12:03;90364.63;;;11.78;52.59
76074;BME280;64776;42.636;24.358;2024-03-17T10:15:05;90365.09;;;11.76;52.45
76074;BME280;64776;42.636;24.358;2024-03-17T10:18:20;90361.00;;;12.12;52.95
76074;BME280;64776;42.636;24.358;2024-03-17T10:21:25;90365.41;;;12.15;51.58
76074;BME280;64776;42.636;24.358;2024-03-17T10:24:27;90364.63;;;12.40;50.99
76074;BME280;64776;42.636;24.358;2024-03-17T10:27:30;90355.66;;;12.12;52.11
76074;BME280;64776;42.636;24.358;2024-03-17T10:30:30;90365.16;;;11.82;52.05
76074;BME280;64776;42.636;24.358;2024-03-17T10:33:31;90361.44;;;12.05;51.12
76074;BME280;64776;42.636;24.358;2024-03-17T10:36:32;90373.53;;;11.95;49.91
76074;BME280;64776;42.636;24.358;2024-03-17T10:39:33;90364.91;;;12.11;50.58
76074;BME280;64776;42.636;24.358;2024-03-17T10:42:35;90361.50;;;12.47;47.96
76074;BME280;64776;42.636;24.358;2024-03-17T10:45:36;90349.94;;;12.67;47.99
76074;BME280;64776;42.636;24.358;2024-03-17T10:48:38;90356.00;;;13.04;49.07
76074;BME280;64776;42.636;24.358;2024-03-17T10:51:40;90356.22;;;12.58;47.57
76074;BME280;64776;42.636;24.358;2024-03-17T10:54:47;90347.50;;;12.26;48.12
76074;BME280;64776;42.636;24.358;2024-03-17T10:57:50;90349.66;;;12.59;47.06
76074;BME280;64776;42.636;24.358;2024-03-17T11:00:51;90350.00;;;12.36;48.05
76074;BME280;64776;42.636;24.358;2024-03-17T11:03:52;90346.28;;;11.91;50.49
76074;BME280;64776;42.636;24.358;2024-03-17T11:06:54;90348.38;;;11.81;51.23
76074;BME280;64776;42.636;24.358;2024-03-17T11:09:56;90352.00;;;11.32;51.93
76074;BME280;64776;42.636;24.358;2024-03-17T11:12:59;90336.91;;;11.04;51.93
76074;BME280;64776;42.636;24.358;2024-03-17T11:16:00;90349.78;;;11.05;51.60
76074;BME280;64776;42.636;24.358;2024-03-17T11:19:05;90344.63;;;11.22;53.93
76074;BME280;64776;42.636;24.358;2024-03-17T11:25:41;90332.75;;;11.48;50.79
76074;BME280;64776;42.636;24.358;2024-03-17T11:28:48;90323.41;;;11.90;49.98
76074;BME280;64776;42.636;24.358;2024-03-17T11:31:49;90327.38;;;12.00;51.94
76074;BME280;64776;42.636;24.358;2024-03-17T11:34:50;90331.78;;;12.03;51.85
76074;BME280;64776;42.636;24.358;2024-03-17T11:41:50;90339.69;;;10.95;54.66
76074;BME280;64776;42.636;24.358;2024-03-17T11:45:00;90337.41;;;11.08;54.53
76074;BME280;64776;42.636;24.358;2024-03-17T11:48:01;90328.63;;;11.27;54.07
76074;BME280;64776;42.636;24.358;2024-03-17T11:51:04;90328.44;;;10.85;53.62
76074;BME280;64776;42.636;24.358;2024-03-17T11:54:05;90331.81;;;11.52;53.76
76074;BME280;64776;42.636;24.358;2024-03-17T11:57:06;90331.78;;;12.03;52.63
76074;BME280;64776;42.636;24.358;2024-03-17T12:00:19;90322.19;;;12.64;51.38
76074;BME280;64776;42.636;24.358;2024-03-17T12:03:20;90329.13;;;12.08;51.78
76074;BME280;64776;42.636;24.358;2024-03-17T12:06:20;90328.63;;;11.48;52.33
76074;BME280;64776;42.636;24.358;2024-03-17T12:09:22;90333.13;;;11.16;52.74
76074;BME280;64776;42.636;24.358;2024-03-17T12:12:25;90330.50;;;11.21;54.15
76074;BME280;64776;42.636;24.358;2024-03-17T12:15:28;90323.94;;;11.42;54.10
76074;BME280;64776;42.636;24.358;2024-03-17T12:18:29;90315.22;;;11.99;52.73
76074;BME280;64776;42.636;24.358;2024-03-17T12:21:30;90318.72;;;12.16;50.48
76074;BME280;64776;42.636;24.358;2024-03-17T12:24:33;90314.78;;;12.06;50.27
76074;BME280;64776;42.636;24.358;2024-03-17T12:27:34;90320.47;;;11.88;51.55
76074;BME280;64776;42.636;24.358;2024-03-17T12:30:36;90316.00;;;11.74;51.07
76074;BME280;64776;42.636;24.358;2024-03-17T12:33:37;90308.31;;;11.87;51.92
76074;BME280;64776;42.636;24.358;2024-03-17T12:36:39;90319.38;;;11.48;50.92
76074;BME280;64776;42.636;24.358;2024-03-17T12:39:41;90307.47;;;11.24;53.32
76074;BME280;64776;42.636;24.358;2024-03-17T12:42:47;90309.78;;;11.11;52.80
76074;BME280;64776;42.636;24.358;2024-03-17T12:45:49;90304.03;;;11.18;53.94
76074;BME280;64776;42.636;24.358;2024-03-17T12:48:58;90305.16;;;11.11;53.41
76074;BME280;64776;42.636;24.358;2024-03-17T12:51:59;90307.19;;;11.16;54.69
76074;BME280;64776;42.636;24.358;2024-03-17T12:55:01;90303.81;;;10.96;55.30
76074;BME280;64776;42.636;24.358;2024-03-17T12:58:06;90307.19;;;11.16;55.17
76074;BME280;64776;42.636;24.358;2024-03-17T13:01:08;90297.69;;;11.15;55.13
76074;BME280;64776;42.636;24.358;2024-03-17T13:04:13;90297.09;;;11.31;53.90
76074;BME280;64776;42.636;24.358;2024-03-17T13:07:14;90299.09;;;11.36;55.45
76074;BME280;64776;42.636;24.358;2024-03-17T13:10:15;90299.88;;;11.42;55.01
76074;BME280;64776;42.636;24.358;2024-03-17T13:13:16;90305.59;;;11.56;56.23
76074;BME280;64776;42.636;24.358;2024-03-17T13:16:19;90297.44;;;11.39;54.24
76074;BME280;64776;42.636;24.358;2024-03-17T13:19:19;90298.31;;;11.30;54.81
76074;BME280;64776;42.636;24.358;2024-03-17T13:22:20;90287.25;;;11.17;56.06
76074;BME280;64776;42.636;24.358;2024-03-17T13:25:22;90294.69;;;11.33;55.22
76074;BME280;64776;42.636;24.358;2024-03-17T13:28:23;90295.44;;;11.60;54.24
76074;BME280;64776;42.636;24.358;2024-03-17T13:31:25;90288.56;;;11.79;55.85
76074;BME280;64776;42.636;24.358;2024-03-17T13:34:26;90291.22;;;11.79;54.67
76074;BME280;64776;42.636;24.358;2024-03-17T13:37:27;90302.22;;;11.61;55.71
76074;BME280;64776;42.636;24.358;2024-03-17T13:40:28;90296.50;;;11.16;56.79
76074;BME280;64776;42.636;24.358;2024-03-17T13:43:29;90293.88;;;10.96;57.82
76074;BME280;64776;42.636;24.358;2024-03-17T13:46:31;90297.38;;;11.08;57.46
76074;BME280;64776;42.636;24.358;2024-03-17T13:49:32;90300.72;;;10.83;57.34
76074;BME280;64776;42.636;24.358;2024-03-17T13:52:33;90296.69;;;10.67;58.49
76074;BME280;64776;42.636;24.358;2024-03-17T13:55:34;90300.81;;;10.68;59.06
76074;BME280;64776;42.636;24.358;2024-03-17T13:58:35;90294.66;;;10.82;58.47
76074;BME280;64776;42.636;24.358;2024-03-17T14:01:37;90291.72;;;10.80;57.81
76074;BME280;64776;42.636;24.358;2024-03-17T14:04:38;90300.34;;;10.70;58.69
76074;BME280;64776;42.636;24.358;2024-03-17T14:07:39;90291.19;;;10.96;58.29
76074;BME280;64776;42.636;24.358;2024-03-17T14:10:39;90294.25;;;10.89;57.24
76074;BME280;64776;42.636;24.358;2024-03-17T14:13:40;90288.06;;;10.78;57.72
76074;BME280;64776;42.636;24.358;2024-03-17T14:16:42;90282.09;;;10.88;58.38
76074;BME280;64776;42.636;24.358;2024-03-17T14:19:43;90285.75;;;10.65;59.94
76074;BME280;64776;42.636;24.358;2024-03-17T14:22:45;90283.00;;;10.39;60.16
76074;BME280;64776;42.636;24.358;2024-03-17T14:25:46;90285.66;;;10.39;59.33
76074;BME280;64776;42.636;24.358;2024-03-17T14:28:47;90283.31;;;10.27;59.05
76074;BME280;64776;42.636;24.358;2024-03-17T14:31:49;90286.13;;;10.18;60.63
76074;BME280;64776;42.636;24.358;2024-03-17T14:34:50;90279.53;;;10.33;60.49
76074;BME280;64776;42.636;24.358;2024-03-17T14:37:51;90274.78;;;10.43;59.94
76074;BME280;64776;42.636;24.358;2024-03-17T14:40:52;90274.78;;;10.43;59.67
76074;BME280;64776;42.636;24.358;2024-03-17T14:43:52;90273.88;;;10.46;59.69
76074;BME280;64776;42.636;24.358;2024-03-17T14:46:55;90275.84;;;10.31;60.03
76074;BME280;64776;42.636;24.358;2024-03-17T14:49:55;90272.25;;;10.34;60.72
76074;BME280;64776;42.636;24.358;2024-03-17T14:52:56;90269.44;;;10.43;60.62
76074;BME280;64776;42.636;24.358;2024-03-17T14:55:57;90269.03;;;10.10;61.73
76074;BME280;64776;42.636;24.358;2024-03-17T14:58:58;90266.47;;;10.01;61.86
76074;BME280;64776;42.636;24.358;2024-03-17T15:02:00;90262.59;;;10.02;62.68
76074;BME280;64776;42.636;24.358;2024-03-17T15:05:01;90264.22;;;9.64;63.12
76074;BME280;64776;42.636;24.358;2024-03-17T15:08:01;90263.22;;;9.76;63.18
76074;BME280;64776;42.636;24.358;2024-03-17T15:11:03;90261.75;;;9.75;64.02
76074;BME280;64776;42.636;24.358;2024-03-17T15:14:03;90256.88;;;9.74;63.76
76074;BME280;64776;42.636;24.358;2024-03-17T15:17:05;90257.38;;;9.93;62.11
76074;BME280;64776;42.636;24.358;2024-03-17T15:20:07;90254.19;;;10.23;61.40
76074;BME280;64776;42.636;24.358;2024-03-17T15:23:08;90262.41;;;10.20;61.89
76074;BME280;64776;42.636;24.358;2024-03-17T15:26:08;90260.78;;;9.93;62.24
76074;BME280;64776;42.636;24.358;2024-03-17T15:29:09;90261.94;;;9.72;62.88
76074;BME280;64776;42.636;24.358;2024-03-17T15:32:11;90264.69;;;9.77;62.47
76074;BME280;64776;42.636;24.358;2024-03-17T15:35:12;90267.78;;;9.41;63.27
76074;BME280;64776;42.636;24.358;2024-03-17T15:38:13;90270.78;;;9.20;64.59
76074;BME280;64776;42.636;24.358;2024-03-17T15:41:14;90275.94;;;9.23;63.83
76074;BME280;64776;42.636;24.358;2024-03-17T15:44:15;90262.06;;;9.19;64.55
76074;BME280;64776;42.636;24.358;2024-03-17T15:47:18;90278.22;;;9.16;64.61
76074;BME280;64776;42.636;24.358;2024-03-17T15:50:18;90273.16;;;9.03;65.25
76074;BME280;64776;42.636;24.358;2024-03-17T15:53:19;90282.91;;;9.06;65.73
76074;BME280;64776;42.636;24.358;2024-03-17T15:56:20;90286.94;;;9.16;64.98
76074;BME280;64776;42.636;24.358;2024-03-17T15:59:21;90285.84;;;8.93;65.94
76074;BME280;64776;42.636;24.358;2024-03-17T16:02:23;90276.91;;;8.96;65.24
76074;BME280;64776;42.636;24.358;2024-03-17T16:05:24;90279.22;;;8.89;65.82